Flight Track Log - Related Links

Times and Time Zones

All times are in EDT time to prevent confusion due to time zone crossing. See the N960DL flight status page for this flight to view local times or setup timezone preferences in your user account.


Time Position Orientation Groundspeed Altitude Reporting Facility
EDT Latitude Longitude Course Direction KTS MPH feet Rate Location/Type
Thu 01:42:40 PM 30.4186 -89.0172 58° Northeast 198 228 2,700  Level Houston Center
Thu 01:43:42 PM 30.4781 -88.9694 35° Northeast 248 285 5,300 3,097 Climbing Houston Center
Thu 01:44:00 PM 30.7104 -88.9031 23° Northeast  Level FlightAware Approximate
Thu 01:44:44 PM 30.5467 -88.9131 35° Northeast 269 310 9,100  Level Houston Center
Thu 01:45:00 PM 30.8199 -88.8677 20° North  Level FlightAware Approximate
Thu 01:45:46 PM 30.6219 -88.8594 31° Northeast 317 365 10,100  Level Houston Center
Thu 01:46:00 PM 30.9103 -88.8024 69° East  Level FlightAware Approximate
Thu 01:46:49 PM 30.7075 -88.7933 34° Northeast 365 420 13,200  Level Houston Center
Thu 01:47:00 PM 30.9716 -88.6909 58° Northeast  Level FlightAware Approximate
Thu 01:47:51 PM 30.7947 -88.7242 34° Northeast 373 429 15,400  Level Houston Center
Thu 01:48:00 PM 31.0322 -88.5784 58° Northeast  Level FlightAware Approximate
Thu 01:48:53 PM 30.8919 -88.6483 34° Northeast 410 472 17,700  Level Houston Center
Thu 01:49:55 PM 30.9922 -88.5692 34° Northeast 428 493 19,800 2,032 Climbing Houston Center
Thu 01:50:57 PM 31.1117 -88.4628 37° Northeast 444 511 21,900 1,113 Climbing Houston Center
Thu 01:51:59 PM 31.1878 -88.3408 54° Northeast 454 522 22,100 968 Climbing Houston Center
Thu 01:53:01 PM 31.2647 -88.2172 54° Northeast 461 531 23,900 1,548 Climbing Houston Center
Thu 01:54:03 PM 31.3411 -88.0919 54° Northeast 469 540 25,300 1,700 Climbing Houston Center
Thu 01:55:01 PM 31.4214 -87.9661 53° Northeast 448 516 27,300 2,237 Climbing Atlanta Center
Thu 01:56:01 PM 31.4961 -87.8453 54° Northeast 454 522 29,700 1,900 Climbing Atlanta Center
Thu 01:57:01 PM 31.5706 -87.7242 54° Northeast 460 529 31,100 1,250 Climbing Atlanta Center
Thu 01:58:01 PM 31.6453 -87.6028 54° Northeast 460 529 32,200 950 Climbing Atlanta Center
Thu 01:59:01 PM 31.7153 -87.4833 55° Northeast 460 529 33,000 400 Climbing Atlanta Center
Thu 02:00:01 PM 31.7917 -87.3617 54° Northeast 460 529 33,000  Level Atlanta Center
Thu 02:01:01 PM 31.8511 -87.2492 58° Northeast 454 522 33,000  Level Atlanta Center
Thu 02:02:01 PM 31.9253 -87.1244 55° Northeast 454 522 33,000  Level Atlanta Center
Thu 02:03:01 PM 32.0011 -87.0022 54° Northeast 454 522 33,000  Level Atlanta Center
Thu 02:04:01 PM 32.0750 -86.8772 55° Northeast 461 531 33,000  Level Atlanta Center
Thu 02:05:01 PM 32.1489 -86.7544 55° Northeast 461 531 33,000 -600 Level Atlanta Center
Thu 02:06:01 PM 32.2372 -86.6219 52° Northeast 461 531 31,800 -1,450 Descending Atlanta Center
Thu 02:07:01 PM 32.3106 -86.5014 54° Northeast 461 531 30,100 -1,700 Descending Atlanta Center
Thu 02:08:01 PM 32.3672 -86.3847 60° Northeast 455 524 28,400 -1,800 Descending Atlanta Center
Thu 02:09:01 PM 32.4361 -86.2636 56° Northeast 446 513 26,500 -1,850 Descending Atlanta Center
Thu 02:10:01 PM 32.5200 -86.1228 55° Northeast 453 521 24,700 -1,250 Descending Atlanta Center
Thu 02:11:01 PM 32.5953 -86.0014 54° Northeast 458 527 24,000 -350 Descending Atlanta Center
Thu 02:12:01 PM 32.6658 -85.8794 55° Northeast 458 527 24,000  Level Atlanta Center
Thu 02:13:01 PM 32.7406 -85.7600 53° Northeast 452 520 24,000 -300 Level Atlanta Center
Thu 02:14:01 PM 32.8133 -85.6381 55° Northeast 452 520 23,400 -1,250 Descending Atlanta Center
Thu 02:15:01 PM 32.8900 -85.5181 53° Northeast 447 514 21,500 -2,300 Descending Atlanta Center
Thu 02:16:01 PM 32.9558 -85.4028 56° Northeast 442 509 18,800 -2,800 Descending Atlanta Center
Thu 02:17:01 PM 33.0261 -85.2925 53° Northeast 431 496 15,900 -2,350 Descending Atlanta Center
Thu 02:18:01 PM 33.0833 -85.1992 54° Northeast 404 465 14,100 -1,950 Descending Atlanta Center
Thu 02:19:01 PM 33.1425 -85.1006 54° Northeast 372 428 12,000 -1,050 Descending Atlanta Center
Thu 02:20:01 PM 33.1975 -85.0119 53° Northeast 339 390 12,000 -550 Level Atlanta Center
Thu 02:21:01 PM 33.2503 -84.9456 46° Northeast 296 341 10,900 -1,100 Descending Atlanta Center
Thu 02:22:01 PM 33.3031 -84.8764 48° Northeast 279 321 9,800 -1,200 Descending Atlanta Center
Thu 02:23:01 PM 33.3681 -84.8397 25° Northeast 237 273 8,500 -1,350 Descending Atlanta Center
Thu 02:23:21 PM 33.3833 -84.8333 19° North 249 287 8,000 -1,425 Descending Atlanta TRACON
Thu 02:24:21 PM 33.4500 -84.8333 360° North 243 280 6,600 -1,550 Descending Atlanta TRACON
Thu 02:25:21 PM 33.5167 -84.8500 348° North 252 290 4,900 -1,500 Descending Atlanta TRACON
Thu 02:26:01 PM 33.5469 -84.9011 305° West 224 258 4,100 -540 Descending Atlanta Center
Thu 02:27:01 PM 33.5928 -84.9067 354° North 184 212 4,000 -45 Descending Atlanta Center
Thu 02:28:15 PM 33.6167 -84.8333 69° East 203 234 4,000  Level Atlanta TRACON
Thu 02:29:15 PM 33.6167 -84.7667 90° East 196 226 4,000  Level Atlanta TRACON
Thu 02:30:15 PM 33.6167 -84.7000 90° East 190 219 4,000  Level Atlanta TRACON
Thu 02:31:15 PM 33.6167 -84.6333 90° East 165 190 4,000  Level Atlanta TRACON

Login

Don't have an account? Register now (free) for customized features, flight alerts, and more!